createdAt,value
2022-08-27T00:01:17.323Z,23.20
2022-08-27T00:05:22.241Z,21.15
2022-08-27T00:09:27.142Z,22.30
2022-08-27T00:14:01.578Z,26.35
2022-08-27T00:18:04.939Z,40.50
2022-08-27T00:22:10.305Z,23.40
2022-08-27T00:26:14.274Z,26.08
2022-08-27T00:30:47.866Z,30.17
2022-08-27T00:34:51.816Z,29.20
2022-08-27T00:38:56.463Z,31.92
2022-08-27T00:43:33.428Z,33.40
2022-08-27T00:47:42.288Z,27.63
2022-08-27T00:51:57.552Z,24.63
2022-08-27T00:56:08.480Z,36.42
2022-08-27T01:00:36.695Z,16.67
2022-08-27T01:04:41.400Z,26.58
2022-08-27T01:08:49.517Z,28.05
2022-08-27T01:12:54.751Z,25.42
2022-08-27T01:17:29.350Z,27.10
2022-08-27T01:21:38.197Z,114.22
2022-08-27T01:25:44.346Z,66.10
2022-08-27T01:29:47.925Z,37.83
2022-08-27T01:34:21.540Z,43.42
2022-08-27T01:38:30.498Z,36.95
2022-08-27T01:42:38.995Z,27.00
2022-08-27T01:46:42.464Z,26.45
2022-08-27T01:50:45.666Z,30.50
2022-08-27T01:54:50.963Z,25.88
2022-08-27T01:59:26.386Z,31.60
2022-08-27T02:03:43.187Z,30.25
2022-08-27T02:07:47.145Z,29.50
2022-08-27T02:11:50.385Z,41.55
2022-08-27T02:16:28.549Z,36.65
2022-08-27T02:20:32.298Z,34.08
2022-08-27T02:25:10.252Z,34.00
2022-08-27T02:29:13.662Z,28.42
2022-08-27T02:33:18.151Z,31.33
2022-08-27T02:37:22.434Z,34.13
2022-08-27T02:41:56.079Z,26.23
2022-08-27T02:45:59.577Z,32.83
2022-08-27T02:50:04.256Z,26.73
2022-08-27T02:54:09.510Z,25.25
2022-08-27T02:58:16.644Z,28.40
2022-08-27T03:02:20.125Z,24.85
2022-08-27T03:06:24.808Z,30.42
2022-08-27T03:10:28.193Z,22.95
2022-08-27T03:14:31.396Z,28.08
2022-08-27T03:18:35.351Z,28.73
2022-08-27T03:22:40.325Z,27.80
2022-08-27T03:27:15.512Z,24.83
2022-08-27T03:31:27.221Z,25.25
2022-08-27T03:35:31.498Z,30.88
2022-08-27T03:39:39.078Z,31.00
2022-08-27T03:43:42.222Z,26.08
2022-08-27T03:47:45.410Z,25.35
2022-08-27T03:51:48.886Z,26.15
2022-08-27T03:55:53.491Z,29.15
2022-08-27T03:59:57.129Z,30.80
2022-08-27T04:04:00.477Z,36.72
2022-08-27T04:08:37.352Z,29.98
2022-08-27T04:12:42.492Z,25.75
2022-08-27T04:16:45.668Z,23.67
2022-08-27T04:20:50.566Z,28.10
2022-08-27T04:25:24.716Z,20.92
2022-08-27T04:29:29.723Z,26.83
2022-08-27T04:33:33.229Z,30.48
2022-08-27T04:38:10.253Z,27.13
2022-08-27T04:42:13.601Z,24.88
2022-08-27T04:46:23.174Z,38.13
2022-08-27T04:50:26.395Z,39.63
2022-08-27T04:54:32.837Z,47.50
2022-08-27T04:59:04.974Z,25.33
2022-08-27T05:03:09.568Z,24.05
2022-08-27T05:07:12.734Z,20.05
2022-08-27T05:11:17.812Z,24.52
2022-08-27T05:15:20.939Z,24.92
2022-08-27T05:19:25.486Z,16.90
2022-08-27T05:23:28.888Z,27.52
2022-08-27T05:27:32.103Z,25.95
2022-08-27T05:31:35.979Z,20.08
2022-08-27T05:36:15.890Z,20.90
2022-08-27T05:40:19.219Z,17.27
2022-08-27T05:44:41.126Z,25.58
2022-08-27T05:48:45.267Z,42.90
2022-08-27T05:53:23.778Z,40.70
2022-08-27T05:57:26.998Z,16.48
2022-08-27T06:02:03.630Z,13.35
2022-08-27T06:06:09.609Z,19.50
2022-08-27T06:10:14.576Z,14.40
2022-08-27T06:14:46.408Z,22.70
2022-08-27T06:18:50.337Z,17.00
2022-08-27T06:22:53.429Z,18.92
2022-08-27T06:26:58.169Z,20.98
2022-08-27T06:31:05.283Z,22.70
2022-08-27T06:35:42.386Z,25.60
2022-08-27T06:39:45.626Z,24.55
2022-08-27T06:43:50.821Z,21.13
2022-08-27T06:48:24.658Z,21.90
2022-08-27T06:53:01.246Z,18.88
2022-08-27T06:57:38.612Z,17.98
2022-08-27T07:01:45.377Z,15.55
2022-08-27T07:05:48.517Z,22.88
2022-08-27T07:09:51.740Z,19.67
2022-08-27T07:13:54.853Z,17.50
2022-08-27T07:17:59.915Z,20.10
2022-08-27T07:22:34.982Z,14.57
2022-08-27T07:26:40.226Z,15.88
2022-08-27T07:31:17.177Z,16.95
2022-08-27T07:35:21.832Z,19.33
2022-08-27T07:39:55.517Z,16.67
2022-08-27T07:44:15.931Z,17.95
2022-08-27T07:48:57.407Z,17.00
2022-08-27T07:53:01.957Z,20.02
2022-08-27T07:57:05.617Z,20.85
2022-08-27T08:01:42.287Z,17.83
2022-08-27T08:05:45.569Z,20.23
2022-08-27T08:09:51.152Z,21.45
2022-08-27T08:14:25.269Z,24.05
2022-08-27T08:18:29.473Z,24.05
2022-08-27T08:23:04.351Z,19.33
2022-08-27T08:27:42.432Z,22.50
2022-08-27T08:32:16.599Z,17.60
2022-08-27T08:36:55.173Z,17.23
2022-08-27T08:41:38.541Z,19.27
2022-08-27T08:46:13.552Z,17.15
2022-08-27T08:50:21.402Z,15.18
2022-08-27T08:54:26.992Z,17.08
2022-08-27T08:59:03.454Z,15.75
2022-08-27T09:03:08.701Z,20.85
2022-08-27T09:07:20.465Z,17.38
2022-08-27T09:11:52.091Z,16.90
2022-08-27T09:15:58.356Z,16.50
2022-08-27T09:20:03.102Z,16.73
2022-08-27T09:24:27.145Z,20.35
2022-08-27T09:29:03.139Z,15.93
2022-08-27T09:33:06.364Z,23.20
2022-08-27T09:37:15.340Z,21.40
2022-08-27T09:41:23.989Z,18.98
2022-08-27T09:45:29.919Z,19.77
2022-08-27T09:50:06.821Z,20.15
2022-08-27T09:54:12.986Z,18.30
2022-08-27T09:58:21.715Z,18.73
2022-08-27T10:02:55.643Z,15.50
2022-08-27T10:06:58.740Z,18.08
2022-08-27T10:11:07.959Z,13.93
2022-08-27T10:15:30.439Z,15.10
2022-08-27T10:20:01.094Z,16.73
2022-08-27T10:24:18.282Z,15.05
2022-08-27T10:28:36.965Z,18.00
2022-08-27T10:32:52.913Z,17.05
2022-08-27T10:37:10.783Z,14.55
2022-08-27T10:41:19.610Z,15.23
2022-08-27T10:45:42.653Z,17.50
2022-08-27T10:50:05.038Z,13.93
2022-08-27T10:54:16.582Z,15.32
2022-08-27T10:58:36.941Z,15.80
2022-08-27T11:03:04.044Z,13.75
2022-08-27T11:07:13.318Z,12.60
2022-08-27T11:12:12.825Z,14.43
2022-08-27T11:15:52.638Z,12.07
2022-08-27T11:20:02.620Z,11.68
2022-08-27T11:24:36.254Z,17.95
2022-08-27T11:28:42.765Z,17.10
2022-08-27T11:32:56.332Z,14.27
2022-08-27T11:37:32.367Z,20.33
2022-08-27T11:41:55.773Z,22.92
2022-08-27T11:46:00.603Z,17.35
2022-08-27T11:50:08.616Z,20.85
2022-08-27T11:54:32.178Z,18.35
2022-08-27T11:58:52.873Z,15.43
2022-08-27T12:03:24.354Z,18.73
2022-08-27T12:07:37.227Z,19.08
2022-08-27T12:12:09.402Z,25.35
2022-08-27T12:16:25.845Z,20.15
2022-08-27T12:20:46.923Z,23.00
2022-08-27T12:25:07.786Z,27.33
2022-08-27T12:29:47.821Z,21.38
2022-08-27T12:34:01.816Z,17.40
2022-08-27T12:38:43.770Z,24.77
2022-08-27T12:42:51.646Z,20.75
2022-08-27T12:47:02.976Z,20.85
2022-08-27T12:51:15.074Z,19.38
2022-08-27T12:55:27.884Z,19.35
2022-08-27T12:59:48.310Z,19.20
2022-08-27T13:04:05.483Z,31.48
2022-08-27T13:08:42.227Z,17.83
2022-08-27T13:13:20.530Z,17.25
2022-08-27T13:17:57.186Z,18.48
2022-08-27T13:22:07.848Z,16.00
2022-08-27T13:26:48.765Z,16.15
2022-08-27T13:30:52.351Z,16.55
2022-08-27T13:35:32.506Z,14.75
2022-08-27T13:39:38.894Z,16.88
2022-08-27T13:44:10.866Z,14.73
2022-08-27T13:48:50.272Z,15.80
2022-08-27T13:53:12.854Z,12.73
2022-08-27T13:57:32.522Z,11.15
2022-08-27T14:02:04.853Z,15.23
2022-08-27T14:06:08.493Z,14.20
2022-08-27T14:10:46.667Z,12.98
2022-08-27T14:15:22.652Z,14.75
2022-08-27T14:20:01.306Z,11.65
2022-08-27T14:24:05.314Z,14.52
2022-08-27T14:28:39.682Z,10.02
2022-08-27T14:33:18.116Z,11.38
2022-08-27T14:37:51.834Z,9.90
2022-08-27T14:42:28.786Z,14.50
2022-08-27T14:46:36.123Z,10.77
2022-08-27T14:50:46.260Z,10.38
2022-08-27T14:54:52.487Z,8.85
2022-08-27T14:58:55.766Z,10.27
2022-08-27T15:03:29.912Z,9.70
2022-08-27T15:07:34.460Z,9.95
2022-08-27T15:11:39.848Z,7.93
2022-08-27T15:16:17.856Z,8.85
2022-08-27T15:20:21.181Z,7.10
2022-08-27T15:24:59.755Z,7.15
2022-08-27T15:29:36.885Z,9.38
2022-08-27T15:34:13.826Z,9.60
2022-08-27T15:38:50.352Z,7.45
2022-08-27T15:42:58.926Z,9.55
2022-08-27T15:47:29.525Z,6.50
2022-08-27T15:52:06.211Z,5.65
2022-08-27T15:56:43.173Z,7.10
2022-08-27T16:00:47.991Z,4.85
2022-08-27T16:05:22.791Z,6.97
2022-08-27T16:09:56.692Z,8.93
2022-08-27T16:13:59.948Z,8.00
2022-08-27T16:18:39.410Z,9.65
2022-08-27T16:23:15.607Z,7.53
2022-08-27T16:27:18.779Z,7.13
2022-08-27T16:31:22.182Z,6.35
2022-08-27T16:35:27.237Z,8.95
2022-08-27T16:39:33.749Z,7.32
2022-08-27T16:44:07.954Z,4.88
2022-08-27T16:48:28.811Z,3.78
2022-08-27T16:52:48.162Z,3.25
2022-08-27T16:57:22.187Z,3.65
2022-08-27T17:01:25.829Z,4.78
2022-08-27T17:06:00.071Z,7.63
2022-08-27T17:10:06.965Z,5.13
2022-08-27T17:14:40.320Z,3.78
2022-08-27T17:18:43.722Z,9.05
2022-08-27T17:22:46.898Z,3.30
2022-08-27T17:27:23.640Z,6.72
2022-08-27T17:31:32.489Z,5.38
2022-08-27T17:36:02.801Z,3.47
2022-08-27T17:40:10.649Z,5.15
2022-08-27T17:44:44.846Z,4.90
2022-08-27T17:48:49.406Z,3.95
2022-08-27T17:53:23.450Z,5.28
2022-08-27T17:57:29.510Z,4.63
2022-08-27T18:01:43.977Z,6.22
2022-08-27T18:05:49.562Z,6.18
2022-08-27T18:09:52.877Z,5.68
2022-08-27T18:14:26.792Z,5.32
2022-08-27T18:18:29.962Z,7.97
2022-08-27T18:22:35.000Z,7.30
2022-08-27T18:27:10.038Z,6.50
2022-08-27T18:31:14.617Z,7.65
2022-08-27T18:35:21.240Z,11.93
2022-08-27T18:39:26.005Z,7.78
2022-08-27T18:44:03.145Z,6.38
2022-08-27T18:48:37.839Z,7.07
2022-08-27T18:52:42.840Z,6.15
2022-08-27T18:56:47.479Z,9.40
2022-08-27T19:01:25.322Z,5.45
2022-08-27T19:05:30.093Z,8.20
2022-08-27T19:10:04.840Z,8.50
2022-08-27T19:14:42.834Z,11.77
2022-08-27T19:19:16.341Z,6.85
2022-08-27T19:23:22.136Z,6.75
2022-08-27T19:27:27.644Z,7.15
2022-08-27T19:32:03.455Z,8.13
2022-08-27T19:36:38.521Z,8.73
2022-08-27T19:41:13.104Z,10.13
2022-08-27T19:45:16.329Z,6.90
2022-08-27T19:49:28.042Z,9.80
2022-08-27T19:54:01.837Z,5.75
2022-08-27T19:58:38.285Z,5.60
2022-08-27T20:03:15.357Z,8.35
2022-08-27T20:07:21.940Z,9.93
2022-08-27T20:11:25.140Z,9.40
2022-08-27T20:15:28.687Z,9.75
2022-08-27T20:19:31.907Z,8.82
2022-08-27T20:24:09.449Z,7.60
2022-08-27T20:28:37.718Z,11.35
2022-08-27T20:32:36.677Z,10.63
2022-08-27T20:37:10.807Z,11.13
2022-08-27T20:41:15.462Z,8.80
2022-08-27T20:45:49.236Z,10.85
2022-08-27T20:50:27.160Z,6.75
2022-08-27T20:55:04.282Z,11.32
2022-08-27T20:59:59.949Z,11.68
2022-08-27T21:04:03.220Z,9.55
2022-08-27T21:08:07.868Z,10.05
2022-08-27T21:12:11.052Z,10.98
2022-08-27T21:16:49.600Z,8.75
2022-08-27T21:20:54.572Z,17.30
2022-08-27T21:25:31.328Z,11.20
2022-08-27T21:29:35.102Z,10.30
2022-08-27T21:33:41.838Z,10.85
2022-08-27T21:38:12.634Z,10.52
2022-08-27T21:42:49.908Z,13.63
2022-08-27T21:47:23.840Z,11.05
2022-08-27T21:51:28.842Z,15.27
2022-08-27T21:55:32.018Z,13.38
2022-08-27T21:59:41.061Z,13.15
2022-08-27T22:03:47.113Z,13.52
2022-08-27T22:07:51.762Z,14.73
2022-08-27T22:11:55.626Z,11.75
2022-08-27T22:15:58.929Z,14.63
2022-08-27T22:20:02.204Z,18.83
2022-08-27T22:24:40.528Z,16.80
2022-08-27T22:28:44.168Z,15.88
2022-08-27T22:32:47.512Z,15.52
2022-08-27T22:36:50.688Z,13.05
2022-08-27T22:40:55.628Z,13.20
2022-08-27T22:44:58.737Z,15.32
2022-08-27T22:49:02.028Z,17.65
2022-08-27T22:53:39.430Z,15.82
2022-08-27T22:57:44.581Z,14.68
2022-08-27T23:01:47.887Z,14.35
2022-08-27T23:05:51.238Z,15.45
2022-08-27T23:10:28.645Z,14.73
2022-08-27T23:14:34.419Z,14.38
2022-08-27T23:18:38.714Z,13.38
2022-08-27T23:22:41.930Z,14.98
2022-08-27T23:27:30.643Z,17.02
2022-08-27T23:31:35.260Z,21.58
2022-08-27T23:35:38.873Z,14.15
2022-08-27T23:39:42.354Z,14.45
2022-08-27T23:43:45.779Z,17.38
2022-08-27T23:47:50.318Z,15.90
2022-08-27T23:51:53.711Z,18.30
2022-08-27T23:56:30.762Z,17.48
